sensor_id;sensor_type;location;lat;lon;timestamp;P1;durP1;ratioP1;P2;durP2;ratioP2
16137;SDS011;8174;43.550;5.206;2023-03-01T00:00:22;24.23;;;17.17;;
16137;SDS011;8174;43.550;5.206;2023-03-01T00:02:50;25.50;;;17.97;;
16137;SDS011;8174;43.550;5.206;2023-03-01T00:05:17;29.97;;;18.30;;
16137;SDS011;8174;43.550;5.206;2023-03-01T00:07:44;26.30;;;18.40;;
16137;SDS011;8174;43.550;5.206;2023-03-01T00:10:13;26.20;;;18.97;;
16137;SDS011;8174;43.550;5.206;2023-03-01T00:12:40;26.67;;;17.77;;
16137;SDS011;8174;43.550;5.206;2023-03-01T00:15:08;28.10;;;19.47;;
16137;SDS011;8174;43.550;5.206;2023-03-01T00:17:36;29.63;;;19.30;;
16137;SDS011;8174;43.550;5.206;2023-03-01T00:20:03;25.07;;;18.67;;
16137;SDS011;8174;43.550;5.206;2023-03-01T00:22:33;26.53;;;19.67;;
16137;SDS011;8174;43.550;5.206;2023-03-01T00:25:00;25.97;;;18.40;;
16137;SDS011;8174;43.550;5.206;2023-03-01T00:27:29;23.63;;;18.07;;
16137;SDS011;8174;43.550;5.206;2023-03-01T00:29:56;24.23;;;18.40;;
16137;SDS011;8174;43.550;5.206;2023-03-01T00:32:23;26.80;;;18.93;;
16137;SDS011;8174;43.550;5.206;2023-03-01T00:34:51;28.27;;;18.50;;
16137;SDS011;8174;43.550;5.206;2023-03-01T00:37:20;30.13;;;20.27;;
16137;SDS011;8174;43.550;5.206;2023-03-01T00:39:47;26.03;;;18.93;;
16137;SDS011;8174;43.550;5.206;2023-03-01T00:42:14;26.97;;;19.17;;
16137;SDS011;8174;43.550;5.206;2023-03-01T00:44:43;26.13;;;19.90;;
16137;SDS011;8174;43.550;5.206;2023-03-01T00:47:11;28.40;;;19.07;;
16137;SDS011;8174;43.550;5.206;2023-03-01T00:49:38;25.57;;;18.50;;
16137;SDS011;8174;43.550;5.206;2023-03-01T00:52:06;27.57;;;19.10;;
16137;SDS011;8174;43.550;5.206;2023-03-01T00:54:33;29.63;;;19.77;;
16137;SDS011;8174;43.550;5.206;2023-03-01T00:57:00;31.07;;;21.70;;
16137;SDS011;8174;43.550;5.206;2023-03-01T00:59:28;29.87;;;21.37;;
16137;SDS011;8174;43.550;5.206;2023-03-01T01:01:56;29.30;;;20.80;;
16137;SDS011;8174;43.550;5.206;2023-03-01T01:04:24;32.37;;;21.30;;
16137;SDS011;8174;43.550;5.206;2023-03-01T01:06:51;32.90;;;22.53;;
16137;SDS011;8174;43.550;5.206;2023-03-01T01:09:18;34.23;;;22.90;;
16137;SDS011;8174;43.550;5.206;2023-03-01T01:11:46;30.63;;;22.23;;
16137;SDS011;8174;43.550;5.206;2023-03-01T01:14:14;30.03;;;21.37;;
16137;SDS011;8174;43.550;5.206;2023-03-01T01:16:42;30.13;;;20.77;;
16137;SDS011;8174;43.550;5.206;2023-03-01T01:19:11;30.27;;;21.13;;
16137;SDS011;8174;43.550;5.206;2023-03-01T01:21:39;33.20;;;21.97;;
16137;SDS011;8174;43.550;5.206;2023-03-01T01:24:08;32.33;;;21.60;;
16137;SDS011;8174;43.550;5.206;2023-03-01T01:26:35;31.00;;;21.27;;
16137;SDS011;8174;43.550;5.206;2023-03-01T01:29:03;29.63;;;21.70;;
16137;SDS011;8174;43.550;5.206;2023-03-01T01:31:31;32.07;;;21.83;;
16137;SDS011;8174;43.550;5.206;2023-03-01T01:33:59;31.73;;;21.77;;
16137;SDS011;8174;43.550;5.206;2023-03-01T01:36:28;33.87;;;23.07;;
16137;SDS011;8174;43.550;5.206;2023-03-01T01:38:55;33.70;;;23.13;;
16137;SDS011;8174;43.550;5.206;2023-03-01T01:41:23;34.80;;;22.80;;
16137;SDS011;8174;43.550;5.206;2023-03-01T01:46:34;37.57;;;24.23;;
16137;SDS011;8174;43.550;5.206;2023-03-01T01:49:04;39.23;;;24.47;;
16137;SDS011;8174;43.550;5.206;2023-03-01T01:51:35;42.93;;;26.60;;
16137;SDS011;8174;43.550;5.206;2023-03-01T01:54:06;44.80;;;26.43;;
16137;SDS011;8174;43.550;5.206;2023-03-01T01:56:35;41.40;;;25.60;;
16137;SDS011;8174;43.550;5.206;2023-03-01T01:59:04;39.40;;;25.07;;
16137;SDS011;8174;43.550;5.206;2023-03-01T02:01:32;44.20;;;25.80;;
16137;SDS011;8174;43.550;5.206;2023-03-01T02:03:59;40.43;;;24.83;;
16137;SDS011;8174;43.550;5.206;2023-03-01T02:06:27;43.00;;;25.13;;
16137;SDS011;8174;43.550;5.206;2023-03-01T02:08:57;39.33;;;25.53;;
16137;SDS011;8174;43.550;5.206;2023-03-01T02:11:24;36.93;;;24.70;;
16137;SDS011;8174;43.550;5.206;2023-03-01T02:13:52;39.77;;;24.67;;
16137;SDS011;8174;43.550;5.206;2023-03-01T02:16:21;35.57;;;23.97;;
16137;SDS011;8174;43.550;5.206;2023-03-01T02:18:48;37.30;;;23.37;;
16137;SDS011;8174;43.550;5.206;2023-03-01T02:21:24;33.70;;;22.37;;
16137;SDS011;8174;43.550;5.206;2023-03-01T02:23:54;31.33;;;21.67;;
16137;SDS011;8174;43.550;5.206;2023-03-01T02:26:24;31.63;;;21.63;;
16137;SDS011;8174;43.550;5.206;2023-03-01T02:28:57;31.87;;;21.33;;
16137;SDS011;8174;43.550;5.206;2023-03-01T02:31:25;31.00;;;21.80;;
16137;SDS011;8174;43.550;5.206;2023-03-01T02:34:08;29.13;;;20.67;;
16137;SDS011;8174;43.550;5.206;2023-03-01T02:36:37;30.00;;;21.47;;
16137;SDS011;8174;43.550;5.206;2023-03-01T02:39:06;32.40;;;22.10;;
16137;SDS011;8174;43.550;5.206;2023-03-01T02:41:41;29.10;;;20.83;;
16137;SDS011;8174;43.550;5.206;2023-03-01T02:44:11;32.37;;;21.00;;
16137;SDS011;8174;43.550;5.206;2023-03-01T02:46:42;29.63;;;20.40;;
16137;SDS011;8174;43.550;5.206;2023-03-01T02:49:16;28.97;;;20.00;;
16137;SDS011;8174;43.550;5.206;2023-03-01T02:51:45;28.90;;;20.37;;
16137;SDS011;8174;43.550;5.206;2023-03-01T02:54:17;28.17;;;21.03;;
16137;SDS011;8174;43.550;5.206;2023-03-01T02:56:47;30.33;;;21.13;;
16137;SDS011;8174;43.550;5.206;2023-03-01T02:59:18;30.03;;;21.07;;
16137;SDS011;8174;43.550;5.206;2023-03-01T03:01:46;31.27;;;20.27;;
16137;SDS011;8174;43.550;5.206;2023-03-01T03:04:15;28.93;;;20.50;;
16137;SDS011;8174;43.550;5.206;2023-03-01T03:06:43;31.20;;;21.07;;
16137;SDS011;8174;43.550;5.206;2023-03-01T03:09:10;28.00;;;19.80;;
16137;SDS011;8174;43.550;5.206;2023-03-01T03:11:37;28.47;;;19.60;;
16137;SDS011;8174;43.550;5.206;2023-03-01T03:14:06;28.03;;;19.57;;
16137;SDS011;8174;43.550;5.206;2023-03-01T03:16:39;26.20;;;19.03;;
16137;SDS011;8174;43.550;5.206;2023-03-01T03:19:06;28.80;;;20.60;;
16137;SDS011;8174;43.550;5.206;2023-03-01T03:21:33;27.70;;;20.13;;
16137;SDS011;8174;43.550;5.206;2023-03-01T03:24:01;29.40;;;19.93;;
16137;SDS011;8174;43.550;5.206;2023-03-01T03:26:28;26.53;;;19.87;;
16137;SDS011;8174;43.550;5.206;2023-03-01T03:28:56;28.53;;;19.50;;
16137;SDS011;8174;43.550;5.206;2023-03-01T03:31:23;28.77;;;20.63;;
16137;SDS011;8174;43.550;5.206;2023-03-01T03:33:52;30.10;;;19.83;;
16137;SDS011;8174;43.550;5.206;2023-03-01T03:36:20;30.97;;;21.13;;
16137;SDS011;8174;43.550;5.206;2023-03-01T03:38:47;29.60;;;19.83;;
16137;SDS011;8174;43.550;5.206;2023-03-01T03:41:15;33.87;;;21.10;;
16137;SDS011;8174;43.550;5.206;2023-03-01T03:43:42;29.80;;;20.23;;
16137;SDS011;8174;43.550;5.206;2023-03-01T03:46:09;34.07;;;21.90;;
16137;SDS011;8174;43.550;5.206;2023-03-01T03:48:38;28.93;;;20.00;;
16137;SDS011;8174;43.550;5.206;2023-03-01T03:51:09;33.13;;;21.10;;
16137;SDS011;8174;43.550;5.206;2023-03-01T03:53:36;30.03;;;20.63;;
16137;SDS011;8174;43.550;5.206;2023-03-01T03:56:04;31.10;;;21.00;;
16137;SDS011;8174;43.550;5.206;2023-03-01T03:58:31;29.27;;;20.63;;
16137;SDS011;8174;43.550;5.206;2023-03-01T04:00:59;30.30;;;20.40;;
16137;SDS011;8174;43.550;5.206;2023-03-01T04:03:27;29.20;;;20.20;;
16137;SDS011;8174;43.550;5.206;2023-03-01T04:05:56;30.57;;;21.07;;
16137;SDS011;8174;43.550;5.206;2023-03-01T04:08:25;30.27;;;20.47;;
16137;SDS011;8174;43.550;5.206;2023-03-01T04:10:56;29.40;;;20.97;;
16137;SDS011;8174;43.550;5.206;2023-03-01T04:13:24;30.43;;;19.87;;
16137;SDS011;8174;43.550;5.206;2023-03-01T04:15:51;33.30;;;21.10;;
16137;SDS011;8174;43.550;5.206;2023-03-01T04:18:20;31.07;;;21.00;;
16137;SDS011;8174;43.550;5.206;2023-03-01T04:20:47;30.77;;;21.10;;
16137;SDS011;8174;43.550;5.206;2023-03-01T04:23:18;28.83;;;20.70;;
16137;SDS011;8174;43.550;5.206;2023-03-01T04:25:48;29.07;;;20.50;;
16137;SDS011;8174;43.550;5.206;2023-03-01T04:28:19;28.53;;;20.37;;
16137;SDS011;8174;43.550;5.206;2023-03-01T04:30:46;28.40;;;20.03;;
16137;SDS011;8174;43.550;5.206;2023-03-01T04:33:13;28.50;;;20.17;;
16137;SDS011;8174;43.550;5.206;2023-03-01T04:35:41;26.63;;;19.77;;
16137;SDS011;8174;43.550;5.206;2023-03-01T04:38:08;30.50;;;20.37;;
16137;SDS011;8174;43.550;5.206;2023-03-01T04:40:35;29.73;;;20.80;;
16137;SDS011;8174;43.550;5.206;2023-03-01T04:43:05;30.17;;;20.77;;
16137;SDS011;8174;43.550;5.206;2023-03-01T04:45:32;30.90;;;21.43;;
16137;SDS011;8174;43.550;5.206;2023-03-01T04:48:00;30.43;;;20.47;;
16137;SDS011;8174;43.550;5.206;2023-03-01T04:50:28;34.03;;;22.60;;
16137;SDS011;8174;43.550;5.206;2023-03-01T04:52:55;32.57;;;20.80;;
16137;SDS011;8174;43.550;5.206;2023-03-01T04:55:24;28.10;;;20.40;;
16137;SDS011;8174;43.550;5.206;2023-03-01T04:57:52;30.70;;;21.60;;
16137;SDS011;8174;43.550;5.206;2023-03-01T05:00:21;34.53;;;21.23;;
16137;SDS011;8174;43.550;5.206;2023-03-01T05:02:49;29.57;;;20.00;;
16137;SDS011;8174;43.550;5.206;2023-03-01T05:05:21;32.67;;;20.77;;
16137;SDS011;8174;43.550;5.206;2023-03-01T05:07:51;32.27;;;21.97;;
16137;SDS011;8174;43.550;5.206;2023-03-01T05:10:18;29.90;;;20.77;;
16137;SDS011;8174;43.550;5.206;2023-03-01T05:12:45;29.70;;;21.47;;
16137;SDS011;8174;43.550;5.206;2023-03-01T05:15:13;31.03;;;21.73;;
16137;SDS011;8174;43.550;5.206;2023-03-01T05:17:41;30.37;;;21.50;;
16137;SDS011;8174;43.550;5.206;2023-03-01T05:20:09;31.63;;;21.80;;
16137;SDS011;8174;43.550;5.206;2023-03-01T05:22:37;32.53;;;22.30;;
16137;SDS011;8174;43.550;5.206;2023-03-01T05:25:05;33.10;;;24.13;;
16137;SDS011;8174;43.550;5.206;2023-03-01T05:27:33;33.23;;;23.73;;
16137;SDS011;8174;43.550;5.206;2023-03-01T05:30:00;35.10;;;23.93;;
16137;SDS011;8174;43.550;5.206;2023-03-01T05:32:39;31.63;;;22.83;;
16137;SDS011;8174;43.550;5.206;2023-03-01T05:35:07;39.17;;;23.17;;
16137;SDS011;8174;43.550;5.206;2023-03-01T05:37:38;31.23;;;22.10;;
16137;SDS011;8174;43.550;5.206;2023-03-01T05:40:05;34.30;;;23.53;;
16137;SDS011;8174;43.550;5.206;2023-03-01T05:42:40;36.40;;;23.90;;
16137;SDS011;8174;43.550;5.206;2023-03-01T05:45:08;37.07;;;23.07;;
16137;SDS011;8174;43.550;5.206;2023-03-01T05:47:37;33.67;;;22.60;;
16137;SDS011;8174;43.550;5.206;2023-03-01T05:50:10;37.67;;;23.80;;
16137;SDS011;8174;43.550;5.206;2023-03-01T05:52:37;37.10;;;24.27;;
16137;SDS011;8174;43.550;5.206;2023-03-01T05:55:05;32.77;;;23.10;;
16137;SDS011;8174;43.550;5.206;2023-03-01T05:57:33;35.90;;;22.90;;
16137;SDS011;8174;43.550;5.206;2023-03-01T06:00:00;34.70;;;23.30;;
16137;SDS011;8174;43.550;5.206;2023-03-01T06:02:28;40.27;;;23.57;;
16137;SDS011;8174;43.550;5.206;2023-03-01T06:04:55;35.47;;;23.03;;
16137;SDS011;8174;43.550;5.206;2023-03-01T06:07:24;33.43;;;23.43;;
16137;SDS011;8174;43.550;5.206;2023-03-01T06:09:51;39.80;;;25.10;;
16137;SDS011;8174;43.550;5.206;2023-03-01T06:12:19;45.17;;;24.77;;
16137;SDS011;8174;43.550;5.206;2023-03-01T06:14:46;41.03;;;27.20;;
16137;SDS011;8174;43.550;5.206;2023-03-01T06:17:13;40.67;;;24.60;;
16137;SDS011;8174;43.550;5.206;2023-03-01T06:19:41;40.70;;;25.27;;
16137;SDS011;8174;43.550;5.206;2023-03-01T06:22:08;40.80;;;25.43;;
16137;SDS011;8174;43.550;5.206;2023-03-01T06:24:36;49.90;;;25.80;;
16137;SDS011;8174;43.550;5.206;2023-03-01T06:27:04;45.50;;;27.00;;
16137;SDS011;8174;43.550;5.206;2023-03-01T06:29:31;44.67;;;26.97;;
16137;SDS011;8174;43.550;5.206;2023-03-01T06:31:58;49.87;;;28.10;;
16137;SDS011;8174;43.550;5.206;2023-03-01T06:34:26;48.80;;;27.90;;
16137;SDS011;8174;43.550;5.206;2023-03-01T06:36:53;40.73;;;26.77;;
16137;SDS011;8174;43.550;5.206;2023-03-01T06:39:20;44.97;;;27.87;;
16137;SDS011;8174;43.550;5.206;2023-03-01T06:41:49;44.23;;;26.50;;
16137;SDS011;8174;43.550;5.206;2023-03-01T06:44:16;43.20;;;27.77;;
16137;SDS011;8174;43.550;5.206;2023-03-01T06:46:43;43.33;;;26.73;;
16137;SDS011;8174;43.550;5.206;2023-03-01T06:49:11;49.20;;;26.30;;
16137;SDS011;8174;43.550;5.206;2023-03-01T06:51:38;40.63;;;26.33;;
16137;SDS011;8174;43.550;5.206;2023-03-01T06:54:05;48.07;;;28.73;;
16137;SDS011;8174;43.550;5.206;2023-03-01T06:56:33;43.17;;;28.90;;
16137;SDS011;8174;43.550;5.206;2023-03-01T06:59:02;42.73;;;27.33;;
16137;SDS011;8174;43.550;5.206;2023-03-01T07:01:29;41.10;;;27.60;;
16137;SDS011;8174;43.550;5.206;2023-03-01T07:03:57;42.50;;;26.67;;
16137;SDS011;8174;43.550;5.206;2023-03-01T07:06:24;42.10;;;26.67;;
16137;SDS011;8174;43.550;5.206;2023-03-01T07:08:51;57.37;;;32.37;;
16137;SDS011;8174;43.550;5.206;2023-03-01T07:11:19;65.63;;;39.07;;
16137;SDS011;8174;43.550;5.206;2023-03-01T07:13:46;65.27;;;36.43;;
16137;SDS011;8174;43.550;5.206;2023-03-01T07:16:15;48.93;;;31.03;;
16137;SDS011;8174;43.550;5.206;2023-03-01T07:18:42;38.77;;;25.83;;
16137;SDS011;8174;43.550;5.206;2023-03-01T07:21:10;40.87;;;26.10;;
16137;SDS011;8174;43.550;5.206;2023-03-01T07:23:40;41.27;;;26.90;;
16137;SDS011;8174;43.550;5.206;2023-03-01T07:26:08;148.10;;;73.10;;
16137;SDS011;8174;43.550;5.206;2023-03-01T07:28:35;93.30;;;47.73;;
16137;SDS011;8174;43.550;5.206;2023-03-01T07:31:04;71.63;;;41.07;;
16137;SDS011;8174;43.550;5.206;2023-03-01T07:33:33;51.90;;;30.17;;
16137;SDS011;8174;43.550;5.206;2023-03-01T07:36:01;56.10;;;34.07;;
16137;SDS011;8174;43.550;5.206;2023-03-01T07:38:29;48.87;;;29.93;;
16137;SDS011;8174;43.550;5.206;2023-03-01T07:40:57;43.87;;;26.17;;
16137;SDS011;8174;43.550;5.206;2023-03-01T07:43:25;38.83;;;24.73;;
16137;SDS011;8174;43.550;5.206;2023-03-01T07:45:52;43.73;;;26.10;;
16137;SDS011;8174;43.550;5.206;2023-03-01T07:48:19;43.03;;;26.83;;
16137;SDS011;8174;43.550;5.206;2023-03-01T07:50:48;36.73;;;25.17;;
16137;SDS011;8174;43.550;5.206;2023-03-01T07:53:15;38.30;;;25.40;;
16137;SDS011;8174;43.550;5.206;2023-03-01T07:55:43;45.07;;;25.97;;
16137;SDS011;8174;43.550;5.206;2023-03-01T07:58:10;38.37;;;25.20;;
16137;SDS011;8174;43.550;5.206;2023-03-01T08:00:37;38.73;;;25.90;;
16137;SDS011;8174;43.550;5.206;2023-03-01T08:03:05;34.80;;;23.80;;
16137;SDS011;8174;43.550;5.206;2023-03-01T08:05:32;33.37;;;23.00;;
16137;SDS011;8174;43.550;5.206;2023-03-01T08:08:00;37.57;;;23.33;;
16137;SDS011;8174;43.550;5.206;2023-03-01T08:10:28;36.23;;;23.13;;
16137;SDS011;8174;43.550;5.206;2023-03-01T08:12:55;34.70;;;22.80;;
16137;SDS011;8174;43.550;5.206;2023-03-01T08:15:23;37.23;;;23.50;;
16137;SDS011;8174;43.550;5.206;2023-03-01T08:17:50;34.27;;;22.87;;
16137;SDS011;8174;43.550;5.206;2023-03-01T08:20:17;37.67;;;23.67;;
16137;SDS011;8174;43.550;5.206;2023-03-01T08:22:45;32.93;;;22.40;;
16137;SDS011;8174;43.550;5.206;2023-03-01T08:25:13;32.17;;;22.80;;
16137;SDS011;8174;43.550;5.206;2023-03-01T08:27:41;33.03;;;22.90;;
16137;SDS011;8174;43.550;5.206;2023-03-01T08:30:08;32.90;;;22.97;;
16137;SDS011;8174;43.550;5.206;2023-03-01T08:32:36;37.80;;;25.03;;
16137;SDS011;8174;43.550;5.206;2023-03-01T08:35:04;38.90;;;25.27;;
16137;SDS011;8174;43.550;5.206;2023-03-01T08:37:31;33.93;;;23.87;;
16137;SDS011;8174;43.550;5.206;2023-03-01T08:39:59;35.50;;;25.20;;
16137;SDS011;8174;43.550;5.206;2023-03-01T08:42:27;36.67;;;22.57;;
16137;SDS011;8174;43.550;5.206;2023-03-01T08:44:55;32.63;;;22.37;;
16137;SDS011;8174;43.550;5.206;2023-03-01T08:47:22;32.70;;;21.40;;
16137;SDS011;8174;43.550;5.206;2023-03-01T08:49:49;31.60;;;23.20;;
16137;SDS011;8174;43.550;5.206;2023-03-01T08:52:17;30.50;;;22.50;;
16137;SDS011;8174;43.550;5.206;2023-03-01T08:54:46;31.83;;;22.80;;
16137;SDS011;8174;43.550;5.206;2023-03-01T08:57:14;32.40;;;22.30;;
16137;SDS011;8174;43.550;5.206;2023-03-01T08:59:42;30.40;;;21.83;;
16137;SDS011;8174;43.550;5.206;2023-03-01T09:02:11;31.17;;;20.93;;
16137;SDS011;8174;43.550;5.206;2023-03-01T09:04:39;31.00;;;21.07;;
16137;SDS011;8174;43.550;5.206;2023-03-01T09:07:06;32.87;;;22.07;;
16137;SDS011;8174;43.550;5.206;2023-03-01T09:09:34;28.73;;;20.97;;
16137;SDS011;8174;43.550;5.206;2023-03-01T09:12:02;28.50;;;21.37;;
16137;SDS011;8174;43.550;5.206;2023-03-01T09:14:29;30.67;;;21.47;;
16137;SDS011;8174;43.550;5.206;2023-03-01T09:16:58;27.60;;;20.00;;
16137;SDS011;8174;43.550;5.206;2023-03-01T09:19:28;31.27;;;21.30;;
16137;SDS011;8174;43.550;5.206;2023-03-01T09:21:55;31.63;;;21.23;;
16137;SDS011;8174;43.550;5.206;2023-03-01T09:24:24;31.77;;;21.07;;
16137;SDS011;8174;43.550;5.206;2023-03-01T09:26:53;31.47;;;19.47;;
16137;SDS011;8174;43.550;5.206;2023-03-01T09:29:21;30.67;;;21.97;;
16137;SDS011;8174;43.550;5.206;2023-03-01T09:31:48;30.73;;;21.90;;
16137;SDS011;8174;43.550;5.206;2023-03-01T09:34:17;31.37;;;21.77;;
16137;SDS011;8174;43.550;5.206;2023-03-01T09:36:48;31.13;;;21.33;;
16137;SDS011;8174;43.550;5.206;2023-03-01T09:39:16;33.23;;;22.57;;
16137;SDS011;8174;43.550;5.206;2023-03-01T09:41:45;32.17;;;21.83;;
16137;SDS011;8174;43.550;5.206;2023-03-01T09:44:20;31.97;;;22.17;;
16137;SDS011;8174;43.550;5.206;2023-03-01T09:46:48;32.57;;;22.10;;
16137;SDS011;8174;43.550;5.206;2023-03-01T09:49:18;29.80;;;20.90;;
16137;SDS011;8174;43.550;5.206;2023-03-01T09:51:49;29.33;;;20.80;;
16137;SDS011;8174;43.550;5.206;2023-03-01T09:54:20;31.77;;;22.70;;
16137;SDS011;8174;43.550;5.206;2023-03-01T09:56:52;30.70;;;21.93;;
16137;SDS011;8174;43.550;5.206;2023-03-01T09:59:22;27.37;;;19.43;;
16137;SDS011;8174;43.550;5.206;2023-03-01T10:01:54;30.03;;;20.27;;
16137;SDS011;8174;43.550;5.206;2023-03-01T10:04:35;34.63;;;21.87;;
16137;SDS011;8174;43.550;5.206;2023-03-01T10:07:12;28.80;;;19.97;;
16137;SDS011;8174;43.550;5.206;2023-03-01T10:09:42;27.97;;;21.10;;
16137;SDS011;8174;43.550;5.206;2023-03-01T10:12:10;34.00;;;21.63;;
16137;SDS011;8174;43.550;5.206;2023-03-01T10:14:39;28.43;;;19.93;;
16137;SDS011;8174;43.550;5.206;2023-03-01T10:17:11;28.13;;;20.40;;
16137;SDS011;8174;43.550;5.206;2023-03-01T10:19:41;26.30;;;19.80;;
16137;SDS011;8174;43.550;5.206;2023-03-01T10:22:11;29.10;;;20.87;;
16137;SDS011;8174;43.550;5.206;2023-03-01T10:24:40;33.30;;;20.97;;
16137;SDS011;8174;43.550;5.206;2023-03-01T10:27:09;28.27;;;19.73;;
16137;SDS011;8174;43.550;5.206;2023-03-01T10:29:39;31.47;;;21.50;;
16137;SDS011;8174;43.550;5.206;2023-03-01T10:32:09;30.90;;;22.50;;
16137;SDS011;8174;43.550;5.206;2023-03-01T10:34:36;32.90;;;21.60;;
16137;SDS011;8174;43.550;5.206;2023-03-01T10:37:10;31.90;;;22.63;;
16137;SDS011;8174;43.550;5.206;2023-03-01T10:39:40;30.70;;;22.07;;
16137;SDS011;8174;43.550;5.206;2023-03-01T10:42:22;29.57;;;21.67;;
16137;SDS011;8174;43.550;5.206;2023-03-01T10:44:52;31.30;;;22.40;;
16137;SDS011;8174;43.550;5.206;2023-03-01T10:47:20;32.53;;;21.87;;
16137;SDS011;8174;43.550;5.206;2023-03-01T10:49:52;31.40;;;21.20;;
16137;SDS011;8174;43.550;5.206;2023-03-01T10:52:22;30.47;;;21.53;;
16137;SDS011;8174;43.550;5.206;2023-03-01T10:54:54;28.93;;;20.83;;
16137;SDS011;8174;43.550;5.206;2023-03-01T10:57:28;31.00;;;21.83;;
16137;SDS011;8174;43.550;5.206;2023-03-01T11:02:37;30.63;;;20.13;;
16137;SDS011;8174;43.550;5.206;2023-03-01T11:05:13;28.93;;;21.10;;
16137;SDS011;8174;43.550;5.206;2023-03-01T11:07:48;30.40;;;21.13;;
16137;SDS011;8174;43.550;5.206;2023-03-01T11:10:20;29.20;;;21.43;;
16137;SDS011;8174;43.550;5.206;2023-03-01T11:12:48;35.03;;;21.30;;
16137;SDS011;8174;43.550;5.206;2023-03-01T11:15:21;30.33;;;21.73;;
16137;SDS011;8174;43.550;5.206;2023-03-01T11:17:49;29.67;;;20.17;;
16137;SDS011;8174;43.550;5.206;2023-03-01T11:20:19;29.97;;;19.60;;
16137;SDS011;8174;43.550;5.206;2023-03-01T11:22:49;26.23;;;20.33;;
16137;SDS011;8174;43.550;5.206;2023-03-01T11:25:18;33.03;;;21.57;;
16137;SDS011;8174;43.550;5.206;2023-03-01T11:27:46;28.33;;;20.53;;
16137;SDS011;8174;43.550;5.206;2023-03-01T11:30:15;26.33;;;20.40;;
16137;SDS011;8174;43.550;5.206;2023-03-01T11:32:47;28.57;;;19.93;;
16137;SDS011;8174;43.550;5.206;2023-03-01T11:35:17;28.23;;;19.57;;
16137;SDS011;8174;43.550;5.206;2023-03-01T11:37:52;25.97;;;19.70;;
16137;SDS011;8174;43.550;5.206;2023-03-01T11:42:55;27.10;;;19.80;;
16137;SDS011;8174;43.550;5.206;2023-03-01T11:45:24;27.07;;;19.67;;
16137;SDS011;8174;43.550;5.206;2023-03-01T11:48:06;27.70;;;19.63;;
16137;SDS011;8174;43.550;5.206;2023-03-01T11:50:39;26.30;;;19.23;;
16137;SDS011;8174;43.550;5.206;2023-03-01T11:53:16;23.57;;;18.53;;
16137;SDS011;8174;43.550;5.206;2023-03-01T11:55:51;28.37;;;18.97;;
16137;SDS011;8174;43.550;5.206;2023-03-01T11:58:23;26.07;;;18.43;;
16137;SDS011;8174;43.550;5.206;2023-03-01T12:03:42;27.70;;;21.50;;
16137;SDS011;8174;43.550;5.206;2023-03-01T12:06:22;26.07;;;19.03;;
16137;SDS011;8174;43.550;5.206;2023-03-01T12:08:55;34.80;;;18.90;;
16137;SDS011;8174;43.550;5.206;2023-03-01T12:11:28;25.10;;;19.13;;
16137;SDS011;8174;43.550;5.206;2023-03-01T12:14:04;26.23;;;20.17;;
16137;SDS011;8174;43.550;5.206;2023-03-01T12:16:40;26.47;;;20.97;;
16137;SDS011;8174;43.550;5.206;2023-03-01T12:19:15;28.30;;;19.83;;
16137;SDS011;8174;43.550;5.206;2023-03-01T12:21:49;27.07;;;19.03;;
16137;SDS011;8174;43.550;5.206;2023-03-01T12:27:17;30.73;;;20.50;;
16137;SDS011;8174;43.550;5.206;2023-03-01T12:29:46;38.30;;;25.57;;
16137;SDS011;8174;43.550;5.206;2023-03-01T12:32:20;27.87;;;20.17;;
16137;SDS011;8174;43.550;5.206;2023-03-01T12:34:55;26.33;;;20.90;;
16137;SDS011;8174;43.550;5.206;2023-03-01T12:37:31;30.83;;;22.10;;
16137;SDS011;8174;43.550;5.206;2023-03-01T12:40:11;29.33;;;20.13;;
16137;SDS011;8174;43.550;5.206;2023-03-01T12:42:44;27.57;;;20.63;;
16137;SDS011;8174;43.550;5.206;2023-03-01T12:45:23;29.20;;;21.87;;
16137;SDS011;8174;43.550;5.206;2023-03-01T12:47:57;28.57;;;20.93;;
16137;SDS011;8174;43.550;5.206;2023-03-01T12:50:28;28.63;;;21.03;;
16137;SDS011;8174;43.550;5.206;2023-03-01T12:52:58;28.20;;;19.90;;
16137;SDS011;8174;43.550;5.206;2023-03-01T12:55:27;28.10;;;19.70;;
16137;SDS011;8174;43.550;5.206;2023-03-01T12:58:03;26.43;;;20.27;;
16137;SDS011;8174;43.550;5.206;2023-03-01T13:00:35;27.00;;;20.90;;
16137;SDS011;8174;43.550;5.206;2023-03-01T13:03:09;31.43;;;20.30;;
16137;SDS011;8174;43.550;5.206;2023-03-01T13:05:40;27.60;;;20.23;;
16137;SDS011;8174;43.550;5.206;2023-03-01T13:08:10;24.93;;;19.40;;
16137;SDS011;8174;43.550;5.206;2023-03-01T13:10:43;25.93;;;20.70;;
16137;SDS011;8174;43.550;5.206;2023-03-01T13:13:18;29.17;;;20.73;;
16137;SDS011;8174;43.550;5.206;2023-03-01T13:15:46;29.87;;;20.77;;
16137;SDS011;8174;43.550;5.206;2023-03-01T13:18:29;29.07;;;20.50;;
16137;SDS011;8174;43.550;5.206;2023-03-01T13:20:57;24.83;;;19.13;;
16137;SDS011;8174;43.550;5.206;2023-03-01T13:23:26;25.77;;;18.80;;
16137;SDS011;8174;43.550;5.206;2023-03-01T13:26:00;29.67;;;19.33;;
16137;SDS011;8174;43.550;5.206;2023-03-01T13:34:09;27.87;;;19.33;;
16137;SDS011;8174;43.550;5.206;2023-03-01T13:37:09;27.33;;;19.37;;
16137;SDS011;8174;43.550;5.206;2023-03-01T13:39:39;26.57;;;19.47;;
16137;SDS011;8174;43.550;5.206;2023-03-01T13:44:49;25.33;;;18.03;;
16137;SDS011;8174;43.550;5.206;2023-03-01T13:47:17;27.87;;;19.77;;
16137;SDS011;8174;43.550;5.206;2023-03-01T13:49:46;30.57;;;19.63;;
16137;SDS011;8174;43.550;5.206;2023-03-01T13:52:26;26.43;;;19.50;;
16137;SDS011;8174;43.550;5.206;2023-03-01T13:54:57;27.07;;;19.13;;
16137;SDS011;8174;43.550;5.206;2023-03-01T13:57:26;27.13;;;18.53;;
16137;SDS011;8174;43.550;5.206;2023-03-01T13:59:56;25.70;;;18.20;;
16137;SDS011;8174;43.550;5.206;2023-03-01T14:02:23;25.07;;;17.87;;
16137;SDS011;8174;43.550;5.206;2023-03-01T14:04:56;23.67;;;16.93;;
16137;SDS011;8174;43.550;5.206;2023-03-01T14:07:25;22.33;;;17.70;;
16137;SDS011;8174;43.550;5.206;2023-03-01T14:09:54;27.03;;;18.53;;
16137;SDS011;8174;43.550;5.206;2023-03-01T14:12:25;24.90;;;18.87;;
16137;SDS011;8174;43.550;5.206;2023-03-01T14:14:56;28.30;;;18.93;;
16137;SDS011;8174;43.550;5.206;2023-03-01T14:20:09;24.60;;;18.23;;
16137;SDS011;8174;43.550;5.206;2023-03-01T14:22:38;24.47;;;17.93;;
16137;SDS011;8174;43.550;5.206;2023-03-01T14:25:16;26.77;;;17.60;;
16137;SDS011;8174;43.550;5.206;2023-03-01T14:27:44;24.57;;;18.27;;
16137;SDS011;8174;43.550;5.206;2023-03-01T14:30:12;23.97;;;17.07;;
16137;SDS011;8174;43.550;5.206;2023-03-01T14:32:41;23.67;;;16.90;;
16137;SDS011;8174;43.550;5.206;2023-03-01T14:35:18;22.97;;;16.87;;
16137;SDS011;8174;43.550;5.206;2023-03-01T14:37:47;22.83;;;16.47;;
16137;SDS011;8174;43.550;5.206;2023-03-01T14:40:20;22.73;;;15.67;;
16137;SDS011;8174;43.550;5.206;2023-03-01T14:42:47;22.67;;;17.20;;
16137;SDS011;8174;43.550;5.206;2023-03-01T14:45:14;20.77;;;15.67;;
16137;SDS011;8174;43.550;5.206;2023-03-01T14:47:43;24.87;;;16.10;;
16137;SDS011;8174;43.550;5.206;2023-03-01T14:50:15;22.57;;;15.13;;
16137;SDS011;8174;43.550;5.206;2023-03-01T14:52:44;20.83;;;15.00;;
16137;SDS011;8174;43.550;5.206;2023-03-01T14:55:15;25.20;;;15.87;;
16137;SDS011;8174;43.550;5.206;2023-03-01T14:57:43;24.50;;;15.87;;
16137;SDS011;8174;43.550;5.206;2023-03-01T15:00:15;21.53;;;16.20;;
16137;SDS011;8174;43.550;5.206;2023-03-01T15:02:43;23.73;;;17.13;;
16137;SDS011;8174;43.550;5.206;2023-03-01T15:05:13;25.40;;;17.07;;
16137;SDS011;8174;43.550;5.206;2023-03-01T15:07:41;25.73;;;17.23;;
16137;SDS011;8174;43.550;5.206;2023-03-01T15:10:25;25.30;;;17.63;;